createdAt,value
2023-04-04T00:00:20.664Z,5.95
2023-04-04T00:02:47.220Z,4.80
2023-04-04T00:05:13.920Z,6.10
2023-04-04T00:07:40.417Z,7.25
2023-04-04T00:10:07.329Z,5.72
2023-04-04T00:12:33.907Z,5.13
2023-04-04T00:15:00.440Z,5.27
2023-04-04T00:17:27.042Z,5.47
2023-04-04T00:19:53.571Z,7.97
2023-04-04T00:22:20.353Z,6.15
2023-04-04T00:24:46.831Z,6.53
2023-04-04T00:27:13.283Z,5.57
2023-04-04T00:29:40.021Z,5.75
2023-04-04T00:32:06.591Z,6.32
2023-04-04T00:34:33.372Z,5.28
2023-04-04T00:36:59.859Z,6.10
2023-04-04T00:39:27.126Z,4.83
2023-04-04T00:41:53.870Z,5.78
2023-04-04T00:44:20.481Z,6.72
2023-04-04T00:46:47.099Z,7.78
2023-04-04T00:49:13.634Z,7.68
2023-04-04T00:51:40.151Z,5.40
2023-04-04T00:54:06.894Z,7.30
2023-04-04T00:56:37.403Z,5.05
2023-04-04T00:59:03.960Z,5.55
2023-04-04T01:01:31.960Z,5.20
2023-04-04T01:03:58.940Z,4.70
2023-04-04T01:06:26.505Z,6.32
2023-04-04T01:08:54.360Z,6.82
2023-04-04T01:11:21.351Z,6.10
2023-04-04T01:13:48.148Z,6.40
2023-04-04T01:16:16.860Z,4.87
2023-04-04T01:18:44.414Z,5.60
2023-04-04T01:21:13.282Z,5.38
2023-04-04T01:23:44.850Z,7.13
2023-04-04T01:26:12.550Z,5.30
2023-04-04T01:28:39.048Z,8.37
2023-04-04T01:31:14.194Z,5.45
2023-04-04T01:33:49.275Z,4.43
2023-04-04T01:36:30.575Z,6.00
2023-04-04T01:39:18.250Z,5.90
2023-04-04T01:41:48.276Z,6.40
2023-04-04T01:44:18.938Z,6.95
2023-04-04T01:46:45.460Z,4.55
2023-04-04T01:49:12.574Z,6.57
2023-04-04T01:51:40.741Z,5.95
2023-04-04T01:54:08.060Z,11.00
2023-04-04T01:56:34.945Z,6.38
2023-04-04T01:59:01.545Z,7.80
2023-04-04T02:01:28.517Z,4.80
2023-04-04T02:03:55.115Z,8.20
2023-04-04T02:06:21.587Z,4.63
2023-04-04T02:08:48.372Z,7.82
2023-04-04T02:11:15.672Z,6.10
2023-04-04T02:13:44.358Z,5.38
2023-04-04T02:16:13.652Z,6.05
2023-04-04T02:18:40.357Z,6.83
2023-04-04T02:21:07.735Z,7.90
2023-04-04T02:23:34.247Z,6.28
2023-04-04T02:26:00.953Z,5.72
2023-04-04T02:28:31.338Z,6.40
2023-04-04T02:31:02.368Z,8.03
2023-04-04T02:33:29.562Z,5.95
2023-04-04T02:35:59.028Z,6.38
2023-04-04T02:38:26.288Z,6.35
2023-04-04T02:40:53.219Z,5.88
2023-04-04T02:43:21.034Z,6.23
2023-04-04T02:45:49.292Z,6.03
2023-04-04T02:48:33.821Z,6.15
2023-04-04T02:51:02.089Z,6.65
2023-04-04T02:53:29.577Z,6.70
2023-04-04T02:56:05.206Z,6.07
2023-04-04T02:58:32.588Z,6.65
2023-04-04T03:00:59.175Z,7.18
2023-04-04T03:03:29.731Z,8.57
2023-04-04T03:05:57.229Z,7.65
2023-04-04T03:08:23.723Z,5.83
2023-04-04T03:10:50.382Z,4.93
2023-04-04T03:13:17.165Z,5.60
2023-04-04T03:15:47.430Z,6.90
2023-04-04T03:18:15.527Z,6.03
2023-04-04T03:20:42.433Z,7.43
2023-04-04T03:23:09.228Z,7.13
2023-04-04T03:25:36.949Z,5.28
2023-04-04T03:28:10.000Z,9.80
2023-04-04T03:30:36.559Z,7.10
2023-04-04T03:33:07.656Z,6.80
2023-04-04T03:35:40.662Z,6.40
2023-04-04T03:38:10.742Z,6.78
2023-04-04T03:40:37.421Z,6.63
2023-04-04T03:43:10.442Z,9.32
2023-04-04T03:45:37.194Z,7.70
2023-04-04T03:48:03.957Z,7.63
2023-04-04T03:50:31.647Z,6.85
2023-04-04T03:52:58.508Z,6.68
2023-04-04T03:55:26.328Z,8.30
2023-04-04T03:57:58.900Z,5.53
2023-04-04T04:00:26.165Z,6.38
2023-04-04T04:02:52.891Z,7.63
2023-04-04T04:05:19.822Z,5.93
2023-04-04T04:07:46.684Z,7.45
2023-04-04T04:10:14.183Z,7.90
2023-04-04T04:12:40.908Z,6.43
2023-04-04T04:15:08.174Z,8.25
2023-04-04T04:17:38.482Z,8.68
2023-04-04T04:20:05.826Z,8.80
2023-04-04T04:22:38.157Z,6.40
2023-04-04T04:25:05.288Z,5.78
2023-04-04T04:27:32.783Z,7.70
2023-04-04T04:29:59.588Z,7.72
2023-04-04T04:32:27.337Z,5.70
2023-04-04T04:34:54.413Z,7.80
2023-04-04T04:37:27.110Z,9.10
2023-04-04T04:39:55.692Z,7.20
2023-04-04T04:42:33.394Z,7.43
2023-04-04T04:45:02.066Z,7.70
2023-04-04T04:47:31.916Z,6.60
2023-04-04T04:50:01.214Z,7.35
2023-04-04T04:52:37.202Z,6.18
2023-04-04T04:55:04.961Z,6.25
2023-04-04T04:57:34.278Z,8.25
2023-04-04T05:00:04.610Z,6.93
2023-04-04T05:02:31.404Z,16.77
2023-04-04T05:04:58.998Z,8.35
2023-04-04T05:07:26.474Z,7.28
2023-04-04T05:09:54.177Z,6.88
2023-04-04T05:12:22.319Z,7.43
2023-04-04T05:14:52.086Z,8.52
2023-04-04T05:17:18.951Z,7.97
2023-04-04T05:19:46.223Z,7.35
2023-04-04T05:22:16.804Z,8.32
2023-04-04T05:24:47.408Z,6.27
2023-04-04T05:27:17.612Z,9.70
2023-04-04T05:29:48.495Z,8.27
2023-04-04T05:32:15.985Z,9.80
2023-04-04T05:34:48.841Z,8.18
2023-04-04T05:37:18.133Z,8.40
2023-04-04T05:39:48.864Z,7.93
2023-04-04T05:42:16.874Z,7.47
2023-04-04T05:44:48.018Z,6.05
2023-04-04T05:47:15.619Z,7.60
2023-04-04T05:49:45.516Z,8.37
2023-04-04T05:52:12.450Z,6.72
2023-04-04T05:54:39.128Z,8.20
2023-04-04T05:57:12.037Z,10.52
2023-04-04T05:59:50.079Z,7.68
2023-04-04T06:02:17.410Z,8.33
2023-04-04T06:04:49.520Z,7.47
2023-04-04T06:07:21.731Z,9.57
2023-04-04T06:09:50.573Z,9.77
2023-04-04T06:12:17.389Z,10.23
2023-04-04T06:14:43.841Z,8.30
2023-04-04T06:17:11.193Z,10.27
2023-04-04T06:19:37.759Z,11.32
2023-04-04T06:22:04.294Z,14.02
2023-04-04T06:24:35.009Z,15.95
2023-04-04T06:27:03.559Z,13.17
2023-04-04T06:29:31.405Z,8.32
2023-04-04T06:32:00.954Z,12.82
2023-04-04T06:34:39.677Z,9.77
2023-04-04T06:37:06.944Z,9.38
2023-04-04T06:39:41.065Z,8.10
2023-04-04T06:42:15.193Z,9.73
2023-04-04T06:44:47.507Z,7.60
2023-04-04T06:47:14.914Z,8.60
2023-04-04T06:49:41.607Z,6.72
2023-04-04T06:52:08.132Z,7.37
2023-04-04T06:54:35.830Z,9.35
2023-04-04T06:57:02.959Z,7.40
2023-04-04T06:59:29.548Z,8.15
2023-04-04T07:01:57.516Z,8.25
2023-04-04T07:04:24.312Z,10.33
2023-04-04T07:06:50.859Z,11.45
2023-04-04T07:09:28.053Z,5.88
2023-04-04T07:11:56.223Z,8.40
2023-04-04T07:14:25.274Z,6.13
2023-04-04T07:16:53.246Z,6.93
2023-04-04T07:19:19.850Z,8.02
2023-04-04T07:21:46.358Z,6.18
2023-04-04T07:24:12.866Z,7.22
2023-04-04T07:26:40.869Z,10.50
2023-04-04T07:29:07.925Z,6.10
2023-04-04T07:31:34.492Z,6.85
2023-04-04T07:34:01.412Z,7.47
2023-04-04T07:36:28.011Z,6.53
2023-04-04T07:38:54.568Z,7.47
2023-04-04T07:41:22.531Z,7.10
2023-04-04T07:43:49.760Z,9.05
2023-04-04T07:46:16.804Z,8.13
2023-04-04T07:48:43.735Z,6.53
2023-04-04T07:51:10.304Z,9.23
2023-04-04T07:53:36.759Z,7.93
2023-04-04T07:56:09.219Z,5.65
2023-04-04T07:58:36.608Z,7.05
2023-04-04T08:01:03.631Z,8.73
2023-04-04T08:03:30.723Z,8.10
2023-04-04T08:05:57.345Z,8.27
2023-04-04T08:08:23.918Z,7.55
2023-04-04T08:10:50.442Z,8.05
2023-04-04T08:13:17.045Z,5.18
2023-04-04T08:15:43.911Z,5.40
2023-04-04T08:18:10.502Z,5.40
2023-04-04T08:20:37.928Z,6.68
2023-04-04T08:23:04.766Z,3.78
2023-04-04T08:25:31.515Z,4.38
2023-04-04T08:27:58.136Z,5.32
2023-04-04T08:30:24.655Z,5.63
2023-04-04T08:32:51.297Z,5.75
2023-04-04T08:35:17.855Z,4.88
2023-04-04T08:37:47.698Z,5.25
2023-04-04T08:40:14.828Z,10.75
2023-04-04T08:42:44.265Z,7.00
2023-04-04T08:45:17.749Z,6.95
2023-04-04T08:47:45.315Z,4.00
2023-04-04T08:50:12.172Z,3.35
2023-04-04T08:52:40.512Z,6.00
2023-04-04T08:55:08.220Z,3.87
2023-04-04T08:57:35.348Z,5.20
2023-04-04T09:00:06.299Z,4.47
2023-04-04T09:02:58.122Z,4.88
2023-04-04T09:05:25.640Z,3.45
2023-04-04T09:07:53.538Z,5.10
2023-04-04T09:10:21.046Z,4.18
2023-04-04T09:12:48.772Z,3.13
2023-04-04T09:15:15.943Z,3.65
2023-04-04T09:17:42.693Z,3.72
2023-04-04T09:20:38.801Z,4.17
2023-04-04T09:23:08.082Z,3.17
2023-04-04T09:25:35.750Z,6.05
2023-04-04T09:28:05.503Z,3.35
2023-04-04T09:30:33.978Z,3.63
2023-04-04T09:33:02.448Z,3.97
2023-04-04T09:35:29.013Z,5.00
2023-04-04T09:37:56.010Z,3.40
2023-04-04T09:40:23.954Z,4.82
2023-04-04T09:42:50.591Z,5.03
2023-04-04T09:45:29.435Z,3.73
2023-04-04T09:47:58.762Z,6.50
2023-04-04T09:50:25.883Z,4.07
2023-04-04T09:52:52.778Z,6.95
2023-04-04T09:55:19.638Z,4.13
2023-04-04T09:57:47.255Z,5.07
2023-04-04T10:00:19.538Z,5.80
2023-04-04T10:02:47.967Z,4.65
2023-04-04T10:05:14.757Z,6.82
2023-04-04T10:07:43.568Z,6.35
2023-04-04T10:10:10.508Z,6.80
2023-04-04T10:12:37.701Z,4.35
2023-04-04T10:15:04.818Z,4.05
2023-04-04T10:17:36.705Z,3.83
2023-04-04T10:20:10.446Z,5.80
2023-04-04T10:22:38.709Z,4.97
2023-04-04T10:25:06.047Z,4.07
2023-04-04T10:27:33.152Z,5.55
2023-04-04T10:30:03.241Z,3.60
2023-04-04T10:32:50.945Z,3.88
2023-04-04T10:35:18.777Z,5.07
2023-04-04T10:37:54.413Z,4.43
2023-04-04T10:40:24.318Z,6.15
2023-04-04T10:42:50.927Z,5.25
2023-04-04T10:45:21.574Z,7.85
2023-04-04T10:47:49.228Z,5.03
2023-04-04T10:50:15.907Z,5.10
2023-04-04T10:52:44.387Z,5.93
2023-04-04T10:55:12.904Z,4.80
2023-04-04T10:57:41.851Z,3.45
2023-04-04T11:00:18.748Z,4.07
2023-04-04T11:03:01.119Z,5.30
2023-04-04T11:05:34.230Z,5.00
2023-04-04T11:08:08.556Z,4.90
2023-04-04T11:10:43.713Z,4.28
2023-04-04T11:13:16.648Z,5.23
2023-04-04T11:15:50.833Z,7.13
2023-04-04T11:18:32.595Z,4.60
2023-04-04T11:21:03.697Z,5.55
2023-04-04T11:23:59.293Z,4.43
2023-04-04T11:26:26.153Z,6.53
2023-04-04T11:28:52.635Z,4.88
2023-04-04T11:31:19.417Z,5.95
2023-04-04T11:33:57.827Z,5.30
2023-04-04T11:36:45.558Z,4.53
2023-04-04T11:39:21.030Z,4.37
2023-04-04T11:42:14.049Z,3.53
2023-04-04T11:44:55.713Z,4.38
2023-04-04T11:47:25.632Z,4.32
2023-04-04T11:49:54.830Z,5.28
2023-04-04T11:52:23.687Z,5.00
2023-04-04T11:54:50.262Z,4.82
2023-04-04T11:57:18.791Z,5.10
2023-04-04T11:59:50.570Z,5.90
2023-04-04T12:02:21.768Z,7.60
2023-04-04T12:04:51.621Z,8.10
2023-04-04T12:07:18.384Z,4.88
2023-04-04T12:09:45.343Z,4.78
2023-04-04T12:12:18.751Z,5.25
2023-04-04T12:14:45.241Z,5.97
2023-04-04T12:17:11.962Z,5.00
2023-04-04T12:19:40.111Z,5.18
2023-04-04T12:22:08.262Z,6.20
2023-04-04T12:24:35.770Z,4.82
2023-04-04T12:27:03.582Z,8.10
2023-04-04T12:29:37.408Z,5.37
2023-04-04T12:32:05.879Z,5.18
2023-04-04T12:34:33.806Z,4.47
2023-04-04T12:37:02.084Z,4.50
2023-04-04T12:39:29.980Z,6.88
2023-04-04T12:42:02.777Z,5.07
2023-04-04T12:44:36.564Z,6.68
2023-04-04T12:47:08.034Z,6.25
2023-04-04T12:49:39.983Z,5.07
2023-04-04T12:52:08.903Z,4.22
2023-04-04T12:54:39.838Z,5.80
2023-04-04T12:57:08.070Z,9.63
2023-04-04T12:59:36.224Z,4.28
2023-04-04T13:02:07.144Z,6.50
2023-04-04T13:04:34.097Z,5.93
2023-04-04T13:07:02.678Z,5.00
2023-04-04T13:09:29.170Z,4.72
2023-04-04T13:12:03.718Z,4.63
2023-04-04T13:14:59.061Z,5.03
2023-04-04T13:17:26.396Z,5.90
2023-04-04T13:19:53.112Z,6.23
2023-04-04T13:22:19.639Z,5.63
2023-04-04T13:24:46.277Z,5.05
2023-04-04T13:27:12.790Z,5.57
2023-04-04T13:29:39.308Z,5.30
2023-04-04T13:32:05.805Z,6.13
2023-04-04T13:34:32.729Z,4.40
2023-04-04T13:36:59.325Z,4.60
2023-04-04T13:39:25.829Z,5.32
2023-04-04T13:41:52.464Z,5.30
2023-04-04T13:44:19.013Z,6.97
2023-04-04T13:46:45.591Z,5.38
2023-04-04T13:49:12.182Z,4.20
2023-04-04T13:51:38.814Z,4.78
2023-04-04T13:54:05.303Z,7.22
2023-04-04T13:56:31.738Z,6.23
2023-04-04T13:58:58.283Z,3.88
2023-04-04T14:01:24.824Z,5.60
2023-04-04T14:03:51.486Z,4.80
2023-04-04T14:06:18.017Z,5.68
2023-04-04T14:08:45.533Z,5.77
2023-04-04T14:11:13.102Z,5.30
2023-04-04T14:13:39.615Z,5.65
2023-04-04T14:16:08.352Z,6.05
2023-04-04T14:18:34.997Z,4.38
2023-04-04T14:21:02.904Z,5.83
2023-04-04T14:23:32.864Z,4.47
2023-04-04T14:25:59.484Z,5.50
2023-04-04T14:28:26.019Z,3.42
2023-04-04T14:30:52.493Z,6.93
2023-04-04T14:33:18.959Z,5.03
2023-04-04T14:35:45.628Z,5.00
2023-04-04T14:38:12.128Z,5.05
2023-04-04T14:40:38.600Z,5.22
2023-04-04T14:43:05.624Z,6.05
2023-04-04T14:45:33.073Z,7.13
2023-04-04T14:47:59.690Z,4.55
2023-04-04T14:50:26.349Z,6.43
2023-04-04T14:52:53.037Z,5.13
2023-04-04T14:55:20.554Z,7.57
2023-04-04T14:58:01.358Z,6.23
2023-04-04T15:00:29.298Z,8.05
2023-04-04T15:02:56.398Z,5.88
2023-04-04T15:05:24.996Z,4.70
2023-04-04T15:07:51.476Z,4.60
2023-04-04T15:10:17.933Z,6.43
2023-04-04T15:12:44.613Z,4.45
2023-04-04T15:15:13.161Z,5.00
2023-04-04T15:17:39.843Z,6.72
2023-04-04T15:20:07.210Z,5.10
2023-04-04T15:22:33.961Z,4.43
2023-04-04T15:25:00.737Z,5.57
2023-04-04T15:27:27.346Z,5.15
2023-04-04T15:29:54.069Z,6.28
2023-04-04T15:32:20.708Z,5.38
2023-04-04T15:34:47.151Z,7.20
2023-04-04T15:37:13.647Z,4.30
2023-04-04T15:39:51.849Z,6.13
2023-04-04T15:42:19.821Z,4.72
2023-04-04T15:44:46.571Z,7.43
2023-04-04T15:47:13.144Z,5.97
2023-04-04T15:49:39.609Z,7.97
2023-04-04T15:52:06.112Z,4.82
2023-04-04T15:54:32.656Z,5.18
2023-04-04T15:56:59.169Z,5.15
2023-04-04T15:59:26.379Z,5.40
2023-04-04T16:01:53.163Z,6.97
2023-04-04T16:04:19.769Z,4.65
2023-04-04T16:06:46.300Z,6.35
2023-04-04T16:09:12.806Z,6.38
2023-04-04T16:11:39.724Z,5.57
2023-04-04T16:14:09.232Z,5.60
2023-04-04T16:16:36.427Z,8.35
2023-04-04T16:19:02.934Z,5.55
2023-04-04T16:21:30.987Z,6.72
2023-04-04T16:23:57.628Z,4.33
2023-04-04T16:26:24.258Z,7.82
2023-04-04T16:28:50.796Z,6.45
2023-04-04T16:31:17.369Z,7.40
2023-04-04T16:33:44.079Z,5.85
2023-04-04T16:36:10.689Z,6.70
2023-04-04T16:38:37.205Z,5.40
2023-04-04T16:41:04.911Z,5.72
2023-04-04T16:43:31.728Z,5.93
2023-04-04T16:45:58.474Z,6.72
2023-04-04T16:48:24.910Z,6.03
2023-04-04T16:50:51.376Z,6.53
2023-04-04T16:53:17.849Z,7.53
2023-04-04T16:55:44.355Z,6.35
2023-04-04T16:58:10.855Z,7.78
2023-04-04T17:00:37.854Z,6.53
2023-04-04T17:03:04.595Z,5.05
2023-04-04T17:05:31.183Z,5.30
2023-04-04T17:07:57.689Z,7.90
2023-04-04T17:10:24.226Z,6.72
2023-04-04T17:12:51.394Z,6.73
2023-04-04T17:15:18.565Z,6.97
2023-04-04T17:17:45.344Z,6.15
2023-04-04T17:20:18.031Z,6.68
2023-04-04T17:22:45.776Z,8.25
2023-04-04T17:25:12.227Z,6.57
2023-04-04T17:27:38.758Z,6.90
2023-04-04T17:30:05.839Z,6.13
2023-04-04T17:32:33.338Z,6.45
2023-04-04T17:35:00.248Z,6.30
2023-04-04T17:37:28.522Z,7.70
2023-04-04T17:39:55.190Z,5.55
2023-04-04T17:42:21.949Z,5.72
2023-04-04T17:44:48.567Z,6.25
2023-04-04T17:47:15.075Z,6.22
2023-04-04T17:49:41.689Z,7.17
2023-04-04T17:52:08.827Z,7.60
2023-04-04T17:54:36.351Z,5.40
2023-04-04T17:57:03.466Z,6.63
2023-04-04T17:59:30.220Z,7.43
2023-04-04T18:01:56.848Z,7.93
2023-04-04T18:04:25.427Z,6.57
2023-04-04T18:06:52.273Z,6.72
2023-04-04T18:09:18.830Z,7.90
2023-04-04T18:11:45.674Z,6.88
2023-04-04T18:14:12.297Z,7.27
2023-04-04T18:16:41.038Z,8.73
2023-04-04T18:19:09.512Z,6.40
2023-04-04T18:21:36.663Z,9.05
2023-04-04T18:24:05.257Z,9.55
2023-04-04T18:26:32.068Z,6.27
2023-04-04T18:28:58.854Z,7.03
2023-04-04T18:31:28.505Z,7.10
2023-04-04T18:33:55.599Z,8.65
2023-04-04T18:36:22.386Z,7.60
2023-04-04T18:38:50.414Z,6.63
2023-04-04T18:41:17.438Z,7.38
2023-04-04T18:43:44.217Z,6.65
2023-04-04T18:46:10.762Z,8.20
2023-04-04T18:48:37.489Z,8.73
2023-04-04T18:51:04.398Z,7.83
2023-04-04T18:53:30.953Z,9.23
2023-04-04T18:55:58.444Z,7.30
2023-04-04T18:58:25.971Z,7.32
2023-04-04T19:00:58.401Z,8.75
2023-04-04T19:03:26.101Z,7.43
2023-04-04T19:05:53.821Z,8.18
2023-04-04T19:08:20.422Z,6.57
2023-04-04T19:10:49.690Z,7.53
2023-04-04T19:13:17.300Z,7.32
2023-04-04T19:15:44.426Z,6.90
2023-04-04T19:18:11.677Z,8.60
2023-04-04T19:20:38.317Z,7.00
2023-04-04T19:23:04.838Z,8.55
2023-04-04T19:25:31.415Z,9.32
2023-04-04T19:27:58.046Z,7.10
2023-04-04T19:30:54.246Z,7.95
2023-04-04T19:33:26.009Z,8.30
2023-04-04T19:36:18.928Z,7.32
2023-04-04T19:38:45.649Z,9.20
2023-04-04T19:41:32.873Z,8.47
2023-04-04T19:43:59.817Z,10.07
2023-04-04T19:46:28.469Z,7.60
2023-04-04T19:48:56.556Z,8.70
2023-04-04T19:51:22.983Z,9.15
2023-04-04T19:53:51.299Z,8.70
2023-04-04T19:56:18.974Z,8.90
2023-04-04T19:58:48.193Z,9.27
2023-04-04T20:01:22.029Z,6.60
2023-04-04T20:03:48.861Z,9.02
2023-04-04T20:06:29.727Z,9.80
2023-04-04T20:08:58.136Z,9.90
2023-04-04T20:11:33.129Z,9.60
2023-04-04T20:14:06.122Z,8.32
2023-04-04T20:16:33.450Z,8.95
2023-04-04T20:19:01.641Z,8.53
2023-04-04T20:21:31.430Z,8.85
2023-04-04T20:24:04.509Z,8.23
2023-04-04T20:26:54.476Z,7.20
2023-04-04T20:29:30.550Z,10.20
2023-04-04T20:31:59.821Z,9.17
2023-04-04T20:34:37.470Z,8.85
2023-04-04T20:37:09.359Z,9.63
2023-04-04T20:39:46.266Z,7.80
2023-04-04T20:42:31.147Z,7.80
2023-04-04T20:45:10.022Z,7.73
2023-04-04T20:47:50.860Z,8.10
2023-04-04T20:50:17.467Z,7.82
2023-04-04T20:52:49.888Z,7.40
2023-04-04T20:55:20.366Z,8.07
2023-04-04T20:57:47.598Z,9.20
2023-04-04T21:00:23.436Z,12.38
2023-04-04T21:02:49.912Z,9.02
2023-04-04T21:05:27.984Z,10.05
2023-04-04T21:07:54.669Z,7.53
2023-04-04T21:10:23.559Z,10.30
2023-04-04T21:12:51.202Z,8.65
2023-04-04T21:15:24.253Z,11.30
2023-04-04T21:17:51.050Z,8.63
2023-04-04T21:20:43.197Z,7.78
2023-04-04T21:23:31.646Z,8.73
2023-04-04T21:26:09.745Z,7.60
2023-04-04T21:28:42.914Z,8.27
2023-04-04T21:31:14.507Z,9.05
2023-04-04T21:33:45.778Z,6.97
2023-04-04T21:36:28.868Z,6.60
2023-04-04T21:38:57.837Z,7.97
2023-04-04T21:41:34.186Z,10.45
2023-04-04T21:44:02.331Z,11.70
2023-04-04T21:46:32.646Z,10.13
2023-04-04T21:48:59.454Z,8.57
2023-04-04T21:51:26.371Z,9.50
2023-04-04T21:53:53.369Z,6.95
2023-04-04T21:56:19.911Z,7.75
2023-04-04T21:58:46.500Z,10.13
2023-04-04T22:01:13.026Z,8.77
2023-04-04T22:03:40.614Z,8.95
2023-04-04T22:06:07.279Z,8.30
2023-04-04T22:08:33.901Z,7.32
2023-04-04T22:11:02.181Z,8.65
2023-04-04T22:13:42.871Z,7.37
2023-04-04T22:16:15.883Z,7.15
2023-04-04T22:18:47.377Z,8.88
2023-04-04T22:21:15.133Z,6.57
2023-04-04T22:23:42.294Z,6.63
2023-04-04T22:26:20.187Z,8.93
2023-04-04T22:28:48.131Z,8.73
2023-04-04T22:31:15.618Z,9.70
2023-04-04T22:33:42.124Z,7.38
2023-04-04T22:36:09.942Z,10.63
2023-04-04T22:38:39.318Z,9.60
2023-04-04T22:41:06.189Z,9.05
2023-04-04T22:43:32.688Z,7.80
2023-04-04T22:45:59.301Z,8.35
2023-04-04T22:48:25.866Z,8.70
2023-04-04T22:50:55.698Z,8.17
2023-04-04T22:53:25.958Z,9.18
2023-04-04T22:55:53.741Z,10.98
2023-04-04T22:58:21.503Z,7.68
2023-04-04T23:00:48.399Z,8.82
2023-04-04T23:03:14.894Z,9.43
2023-04-04T23:05:41.867Z,8.88
2023-04-04T23:08:08.370Z,9.38
2023-04-04T23:10:34.933Z,10.52
2023-04-04T23:13:01.485Z,10.05
2023-04-04T23:15:28.790Z,7.70
2023-04-04T23:17:55.602Z,9.52
2023-04-04T23:20:22.314Z,9.70
2023-04-04T23:22:48.947Z,9.02
2023-04-04T23:25:15.699Z,7.85
2023-04-04T23:27:42.129Z,7.97
2023-04-04T23:30:09.781Z,8.82
2023-04-04T23:32:36.768Z,10.65
2023-04-04T23:35:03.417Z,9.68
2023-04-04T23:37:29.925Z,8.73
2023-04-04T23:39:56.456Z,10.60
2023-04-04T23:42:23.220Z,11.07
2023-04-04T23:44:49.765Z,9.00
2023-04-04T23:47:16.538Z,9.43
2023-04-04T23:49:43.094Z,9.10
2023-04-04T23:52:09.589Z,10.13
2023-04-04T23:54:36.298Z,7.55
2023-04-04T23:57:02.810Z,8.38
2023-04-04T23:59:29.629Z,9.80
